sensor_id;sensor_type;location;lat;lon;timestamp;pressure;altitude;pressure_sealevel;temperature;humidity
16431;BME280;8325;49.284;7.238;2024-01-10T05:00:59;99564.63;;;-5.61;68.61
16431;BME280;8325;49.284;7.238;2024-01-10T05:05:11;99552.53;;;-5.55;68.57
16431;BME280;8325;49.284;7.238;2024-01-10T05:09:23;99568.09;;;-5.64;68.65
16431;BME280;8325;49.284;7.238;2024-01-10T05:13:34;99564.91;;;-5.70;69.64
16431;BME280;8325;49.284;7.238;2024-01-10T05:17:46;99557.34;;;-5.73;69.79
16431;BME280;8325;49.284;7.238;2024-01-10T05:21:57;99553.19;;;-5.76;70.41
16431;BME280;8325;49.284;7.238;2024-01-10T05:26:13;99549.97;;;-5.81;70.42
16431;BME280;8325;49.284;7.238;2024-01-10T05:30:24;99560.19;;;-5.83;70.65
16431;BME280;8325;49.284;7.238;2024-01-10T05:34:39;99555.16;;;-5.84;70.87
16431;BME280;8325;49.284;7.238;2024-01-10T05:38:51;99552.16;;;-5.70;70.20
16431;BME280;8325;49.284;7.238;2024-01-10T05:43:03;99557.44;;;-5.76;70.56
16431;BME280;8325;49.284;7.238;2024-01-10T05:47:15;99560.09;;;-5.80;70.73
16431;BME280;8325;49.284;7.238;2024-01-10T05:51:26;99558.25;;;-5.74;70.92
16431;BME280;8325;49.284;7.238;2024-01-10T05:55:38;99556.69;;;-5.79;70.85
16431;BME280;8325;49.284;7.238;2024-01-10T05:59:50;99554.16;;;-5.80;71.31
16431;BME280;8325;49.284;7.238;2024-01-10T06:04:04;99555.97;;;-5.84;71.38
16431;BME280;8325;49.284;7.238;2024-01-10T06:08:17;99555.97;;;-5.84;71.96
16431;BME280;8325;49.284;7.238;2024-01-10T06:12:29;99542.91;;;-5.73;72.08
16431;BME280;8325;49.284;7.238;2024-01-10T06:16:40;99555.69;;;-5.74;71.91
16431;BME280;8325;49.284;7.238;2024-01-10T06:20:52;99550.44;;;-5.68;71.89
16431;BME280;8325;49.284;7.238;2024-01-10T06:25:03;99558.97;;;-5.71;71.79
16431;BME280;8325;49.284;7.238;2024-01-10T06:29:16;99563.88;;;-5.65;71.41
16431;BME280;8325;49.284;7.238;2024-01-10T06:33:28;99565.06;;;-5.48;70.54
16431;BME280;8325;49.284;7.238;2024-01-10T06:37:40;99560.13;;;-5.53;70.69
16431;BME280;8325;49.284;7.238;2024-01-10T06:41:52;99557.47;;;-5.50;69.94
16431;BME280;8325;49.284;7.238;2024-01-10T06:46:04;99556.31;;;-5.40;69.72
16431;BME280;8325;49.284;7.238;2024-01-10T06:50:16;99550.34;;;-5.39;69.24
16431;BME280;8325;49.284;7.238;2024-01-10T06:54:28;99558.50;;;-5.29;69.67
16431;BME280;8325;49.284;7.238;2024-01-10T06:58:39;99562.97;;;-5.36;69.71
16431;BME280;8325;49.284;7.238;2024-01-10T07:02:51;99562.78;;;-5.29;69.46
16431;BME280;8325;49.284;7.238;2024-01-10T07:07:03;99567.91;;;-5.31;69.24
16431;BME280;8325;49.284;7.238;2024-01-10T07:11:16;99567.09;;;-5.32;69.24
16431;BME280;8325;49.284;7.238;2024-01-10T07:15:28;99566.47;;;-5.40;70.23
16431;BME280;8325;49.284;7.238;2024-01-10T07:19:39;99570.59;;;-5.09;75.73
16431;BME280;8325;49.284;7.238;2024-01-10T07:23:52;99575.19;;;-5.20;69.92
16431;BME280;8325;49.284;7.238;2024-01-10T07:28:03;99579.56;;;-5.24;70.27
16431;BME280;8325;49.284;7.238;2024-01-10T07:32:15;99578.06;;;-5.29;69.62
16431;BME280;8325;49.284;7.238;2024-01-10T07:36:27;99580.63;;;-5.29;69.79
16431;BME280;8325;49.284;7.238;2024-01-10T07:40:38;99589.75;;;-5.24;69.82
16431;BME280;8325;49.284;7.238;2024-01-10T07:44:50;99587.72;;;-5.14;69.44
16431;BME280;8325;49.284;7.238;2024-01-10T07:49:05;99590.53;;;-5.22;70.09
16431;BME280;8325;49.284;7.238;2024-01-10T07:53:16;99592.16;;;-5.19;69.88
16431;BME280;8325;49.284;7.238;2024-01-10T07:57:28;99600.38;;;-5.11;70.33
16431;BME280;8325;49.284;7.238;2024-01-10T08:01:39;99600.47;;;-5.14;69.83
16431;BME280;8325;49.284;7.238;2024-01-10T08:05:51;99605.13;;;-5.00;69.84
16431;BME280;8325;49.284;7.238;2024-01-10T08:10:04;99611.97;;;-5.02;69.77
16431;BME280;8325;49.284;7.238;2024-01-10T08:14:16;99617.19;;;-4.80;68.75
16431;BME280;8325;49.284;7.238;2024-01-10T08:18:28;99611.88;;;-4.74;68.40
16431;BME280;8325;49.284;7.238;2024-01-10T08:22:40;99609.53;;;-4.80;68.14
16431;BME280;8325;49.284;7.238;2024-01-10T08:26:52;99613.78;;;-4.79;68.30
16431;BME280;8325;49.284;7.238;2024-01-10T08:31:04;99610.25;;;-4.75;68.35
16431;BME280;8325;49.284;7.238;2024-01-10T08:35:16;99609.44;;;-4.77;68.54
16431;BME280;8325;49.284;7.238;2024-01-10T08:39:28;99615.22;;;-4.72;68.57
16431;BME280;8325;49.284;7.238;2024-01-10T08:43:42;99610.44;;;-4.56;67.69
16431;BME280;8325;49.284;7.238;2024-01-10T08:47:53;99617.75;;;-4.47;67.66
16431;BME280;8325;49.284;7.238;2024-01-10T08:52:06;99627.72;;;-4.40;67.30
16431;BME280;8325;49.284;7.238;2024-01-10T08:56:19;99622.41;;;-4.33;67.61
16431;BME280;8325;49.284;7.238;2024-01-10T09:00:31;99606.88;;;-4.27;66.68
16431;BME280;8325;49.284;7.238;2024-01-10T09:04:43;99594.88;;;-4.25;67.04
16431;BME280;8325;49.284;7.238;2024-01-10T09:08:54;99611.75;;;-4.21;66.70
16431;BME280;8325;49.284;7.238;2024-01-10T09:13:06;99616.97;;;-4.24;66.25
16431;BME280;8325;49.284;7.238;2024-01-10T09:17:18;99619.22;;;-4.17;66.22
16431;BME280;8325;49.284;7.238;2024-01-10T09:21:30;99627.59;;;-4.13;66.49
16431;BME280;8325;49.284;7.238;2024-01-10T09:25:41;99621.44;;;-4.07;66.21
16431;BME280;8325;49.284;7.238;2024-01-10T09:29:53;99620.59;;;-4.06;66.06
16431;BME280;8325;49.284;7.238;2024-01-10T09:34:04;99624.56;;;-3.99;66.17
16431;BME280;8325;49.284;7.238;2024-01-10T09:38:16;99624.28;;;-3.91;65.56
16431;BME280;8325;49.284;7.238;2024-01-10T09:42:29;99626.81;;;-3.91;65.58
16431;BME280;8325;49.284;7.238;2024-01-10T09:46:51;99626.94;;;-3.71;64.91
16431;BME280;8325;49.284;7.238;2024-01-10T09:51:04;99629.47;;;-3.71;64.99
16431;BME280;8325;49.284;7.238;2024-01-10T09:55:16;99632.28;;;-3.55;64.69
16431;BME280;8325;49.284;7.238;2024-01-10T09:59:28;99624.94;;;-3.63;64.73
16431;BME280;8325;49.284;7.238;2024-01-10T10:03:41;99630.16;;;-3.44;64.32
16431;BME280;8325;49.284;7.238;2024-01-10T10:07:56;99633.84;;;-3.29;63.52
16431;BME280;8325;49.284;7.238;2024-01-10T10:12:10;99631.75;;;-3.19;63.09
16431;BME280;8325;49.284;7.238;2024-01-10T10:16:25;99626.31;;;-3.12;63.02
16431;BME280;8325;49.284;7.238;2024-01-10T10:20:40;99631.56;;;-3.15;63.28
16431;BME280;8325;49.284;7.238;2024-01-10T10:24:51;99631.97;;;-3.04;62.61
16431;BME280;8325;49.284;7.238;2024-01-10T10:29:04;99622.75;;;-2.87;61.99
16431;BME280;8325;49.284;7.238;2024-01-10T10:33:17;99629.22;;;-2.79;61.34
16431;BME280;8325;49.284;7.238;2024-01-10T10:37:28;99623.56;;;-2.65;61.21
16431;BME280;8325;49.284;7.238;2024-01-10T10:41:40;99620.00;;;-2.62;60.90
16431;BME280;8325;49.284;7.238;2024-01-10T10:45:52;99623.00;;;-2.52;60.45
16431;BME280;8325;49.284;7.238;2024-01-10T10:50:07;99630.03;;;-2.37;60.24
16431;BME280;8325;49.284;7.238;2024-01-10T10:54:21;99633.75;;;-2.44;59.64
16431;BME280;8325;49.284;7.238;2024-01-10T10:58:38;99631.25;;;-2.25;59.73
16431;BME280;8325;49.284;7.238;2024-01-10T11:02:50;99633.88;;;-2.27;59.50
16431;BME280;8325;49.284;7.238;2024-01-10T11:07:02;99629.38;;;-2.22;59.46
16431;BME280;8325;49.284;7.238;2024-01-10T11:24:55;99628.63;;;-2.24;60.00
16431;BME280;8325;49.284;7.238;2024-01-10T11:29:09;99620.97;;;-2.05;59.05
16431;BME280;8325;49.284;7.238;2024-01-10T11:33:34;99627.94;;;-1.71;58.37
16431;BME280;8325;49.284;7.238;2024-01-10T11:37:51;99626.63;;;-1.60;57.68
16431;BME280;8325;49.284;7.238;2024-01-10T11:42:03;99621.97;;;-1.52;57.27
16431;BME280;8325;49.284;7.238;2024-01-10T11:46:14;99614.50;;;-1.38;57.18
16431;BME280;8325;49.284;7.238;2024-01-10T11:50:27;99616.13;;;-1.37;56.46
16431;BME280;8325;49.284;7.238;2024-01-10T11:54:43;99607.34;;;-1.31;56.41
16431;BME280;8325;49.284;7.238;2024-01-10T11:59:00;99606.94;;;-1.41;56.43
16431;BME280;8325;49.284;7.238;2024-01-10T12:03:14;99612.06;;;-1.41;57.24
16431;BME280;8325;49.284;7.238;2024-01-10T12:07:25;99607.78;;;-1.41;57.37
16431;BME280;8325;49.284;7.238;2024-01-10T12:11:39;99600.47;;;-1.31;56.53
16431;BME280;8325;49.284;7.238;2024-01-10T12:15:51;99596.56;;;-1.21;56.83
16431;BME280;8325;49.284;7.238;2024-01-10T12:20:03;99598.38;;;-1.23;56.58
16431;BME280;8325;49.284;7.238;2024-01-10T12:24:15;99600.94;;;-1.23;56.56
16431;BME280;8325;49.284;7.238;2024-01-10T12:28:27;99599.63;;;-1.14;56.74
16431;BME280;8325;49.284;7.238;2024-01-10T12:32:38;99599.97;;;-1.03;56.33
16431;BME280;8325;49.284;7.238;2024-01-10T12:36:54;99595.13;;;-0.91;56.22
16431;BME280;8325;49.284;7.238;2024-01-10T12:41:06;99587.97;;;-0.85;55.72
16431;BME280;8325;49.284;7.238;2024-01-10T12:45:24;99592.78;;;-0.96;55.33
16431;BME280;8325;49.284;7.238;2024-01-10T12:49:35;99584.38;;;-0.98;56.32
16431;BME280;8325;49.284;7.238;2024-01-10T12:53:49;99588.28;;;-0.91;56.03
16431;BME280;8325;49.284;7.238;2024-01-10T12:58:00;99593.72;;;-0.80;56.11
16431;BME280;8325;49.284;7.238;2024-01-10T13:02:18;99579.34;;;-0.66;55.56
16431;BME280;8325;49.284;7.238;2024-01-10T13:06:30;99577.28;;;-0.60;55.57
16431;BME280;8325;49.284;7.238;2024-01-10T13:10:41;99579.03;;;-0.60;55.33
16431;BME280;8325;49.284;7.238;2024-01-10T13:14:53;99577.59;;;-0.49;55.37
16431;BME280;8325;49.284;7.238;2024-01-10T13:19:04;99571.50;;;-0.30;55.10
16431;BME280;8325;49.284;7.238;2024-01-10T13:23:17;99578.22;;;-0.28;54.87
16431;BME280;8325;49.284;7.238;2024-01-10T13:27:30;99583.72;;;-0.35;54.55
16431;BME280;8325;49.284;7.238;2024-01-10T13:31:41;99574.28;;;-0.35;55.27
16431;BME280;8325;49.284;7.238;2024-01-10T13:35:53;99591.00;;;-0.43;54.78
16431;BME280;8325;49.284;7.238;2024-01-10T13:40:07;99581.59;;;-0.60;55.26
16431;BME280;8325;49.284;7.238;2024-01-10T13:44:18;99576.63;;;-0.63;56.05
16431;BME280;8325;49.284;7.238;2024-01-10T13:48:31;99583.25;;;-0.59;56.14
16431;BME280;8325;49.284;7.238;2024-01-10T13:52:43;99583.38;;;-0.45;55.46
16431;BME280;8325;49.284;7.238;2024-01-10T13:56:54;99586.66;;;-0.59;55.79
16431;BME280;8325;49.284;7.238;2024-01-10T14:01:07;99583.91;;;-0.56;55.98
16431;BME280;8325;49.284;7.238;2024-01-10T14:05:18;99582.72;;;-0.49;55.49
16431;BME280;8325;49.284;7.238;2024-01-10T14:09:31;99584.00;;;-0.57;55.79
16431;BME280;8325;49.284;7.238;2024-01-10T14:13:42;99578.13;;;-0.59;56.24
16431;BME280;8325;49.284;7.238;2024-01-10T14:17:54;99586.59;;;-0.75;56.55
16431;BME280;8325;49.284;7.238;2024-01-10T14:22:05;99591.66;;;-0.90;57.35
16431;BME280;8325;49.284;7.238;2024-01-10T14:26:32;99595.28;;;-0.95;57.04
16431;BME280;8325;49.284;7.238;2024-01-10T14:30:43;99603.50;;;-1.05;57.75
16431;BME280;8325;49.284;7.238;2024-01-10T14:34:55;99589.94;;;-1.07;58.21
16431;BME280;8325;49.284;7.238;2024-01-10T14:39:07;99599.81;;;-1.00;57.97
16431;BME280;8325;49.284;7.238;2024-01-10T14:43:18;99609.84;;;-0.60;56.73
16431;BME280;8325;49.284;7.238;2024-01-10T14:47:30;99603.00;;;0.37;53.67
16431;BME280;8325;49.284;7.238;2024-01-10T14:51:42;99601.84;;;0.42;53.35
16431;BME280;8325;49.284;7.238;2024-01-10T14:55:54;99602.69;;;0.11;54.03
16431;BME280;8325;49.284;7.238;2024-01-10T15:00:06;99602.34;;;-0.14;54.92
16431;BME280;8325;49.284;7.238;2024-01-10T15:04:17;99606.13;;;-0.21;55.44
16431;BME280;8325;49.284;7.238;2024-01-10T15:08:29;99605.88;;;-0.50;56.13
16431;BME280;8325;49.284;7.238;2024-01-10T15:12:41;99598.22;;;-0.67;57.04
16431;BME280;8325;49.284;7.238;2024-01-10T15:16:53;99603.50;;;-0.71;57.34
16431;BME280;8325;49.284;7.238;2024-01-10T15:21:05;99615.22;;;-0.82;57.80
16431;BME280;8325;49.284;7.238;2024-01-10T15:25:17;99609.72;;;-0.92;58.46
16431;BME280;8325;49.284;7.238;2024-01-10T15:29:29;99612.78;;;-1.03;58.79
16431;BME280;8325;49.284;7.238;2024-01-10T15:33:41;99624.25;;;-1.10;59.37
16431;BME280;8325;49.284;7.238;2024-01-10T15:37:53;99621.44;;;-1.23;60.03
16431;BME280;8325;49.284;7.238;2024-01-10T15:42:05;99625.34;;;-1.33;60.85
16431;BME280;8325;49.284;7.238;2024-01-10T15:46:19;99622.03;;;-1.35;61.32
16431;BME280;8325;49.284;7.238;2024-01-10T15:50:34;99634.38;;;-1.43;61.94
16431;BME280;8325;49.284;7.238;2024-01-10T15:54:46;99646.69;;;-1.51;62.38
16431;BME280;8325;49.284;7.238;2024-01-10T15:58:59;99638.41;;;-1.56;62.79
16431;BME280;8325;49.284;7.238;2024-01-10T16:03:10;99643.00;;;-1.63;63.80
16431;BME280;8325;49.284;7.238;2024-01-10T16:07:22;99641.25;;;-1.63;63.87
16431;BME280;8325;49.284;7.238;2024-01-10T16:11:42;99651.69;;;-1.67;64.22
16431;BME280;8325;49.284;7.238;2024-01-10T16:15:54;99638.19;;;-1.71;64.99
16431;BME280;8325;49.284;7.238;2024-01-10T16:20:07;99640.34;;;-1.80;65.24
16431;BME280;8325;49.284;7.238;2024-01-10T16:24:18;99645.81;;;-1.88;65.95
16431;BME280;8325;49.284;7.238;2024-01-10T16:28:30;99653.22;;;-1.82;66.09
16431;BME280;8325;49.284;7.238;2024-01-10T16:32:41;99654.75;;;-1.97;66.79
16431;BME280;8325;49.284;7.238;2024-01-10T16:36:53;99643.31;;;-2.09;67.58
16431;BME280;8325;49.284;7.238;2024-01-10T16:41:05;99641.59;;;-2.08;68.01
16431;BME280;8325;49.284;7.238;2024-01-10T16:45:17;99651.94;;;-2.11;68.09
16431;BME280;8325;49.284;7.238;2024-01-10T16:49:28;99656.50;;;-2.18;68.59
16431;BME280;8325;49.284;7.238;2024-01-10T16:53:40;99650.50;;;-2.17;68.96
16431;BME280;8325;49.284;7.238;2024-01-10T16:57:52;99653.88;;;-2.16;68.57
16431;BME280;8325;49.284;7.238;2024-01-10T17:02:05;99662.03;;;-2.27;69.02
16431;BME280;8325;49.284;7.238;2024-01-10T17:06:17;99661.38;;;-2.32;69.09
16431;BME280;8325;49.284;7.238;2024-01-10T17:10:29;99665.16;;;-2.41;69.79
16431;BME280;8325;49.284;7.238;2024-01-10T17:14:41;99662.16;;;-2.50;70.21
16431;BME280;8325;49.284;7.238;2024-01-10T17:18:52;99671.69;;;-2.54;70.36
16431;BME280;8325;49.284;7.238;2024-01-10T17:23:04;99676.88;;;-2.56;70.37
16431;BME280;8325;49.284;7.238;2024-01-10T17:27:15;99678.41;;;-2.51;70.59
16431;BME280;8325;49.284;7.238;2024-01-10T17:31:27;99686.34;;;-2.58;70.81
16431;BME280;8325;49.284;7.238;2024-01-10T17:35:39;99687.44;;;-2.63;70.72
16431;BME280;8325;49.284;7.238;2024-01-10T17:39:51;99690.34;;;-2.72;71.00
16431;BME280;8325;49.284;7.238;2024-01-10T17:44:02;99698.97;;;-2.75;71.36
16431;BME280;8325;49.284;7.238;2024-01-10T17:48:14;99711.16;;;-2.80;71.75
16431;BME280;8325;49.284;7.238;2024-01-10T17:52:29;99710.72;;;-2.91;72.01
16431;BME280;8325;49.284;7.238;2024-01-10T17:56:41;99720.13;;;-2.92;71.99
16431;BME280;8325;49.284;7.238;2024-01-10T18:00:52;99715.25;;;-2.98;72.53
16431;BME280;8325;49.284;7.238;2024-01-10T18:05:05;99714.47;;;-3.00;72.36
16431;BME280;8325;49.284;7.238;2024-01-10T18:09:16;99716.44;;;-3.07;72.96
16431;BME280;8325;49.284;7.238;2024-01-10T18:13:28;99721.44;;;-3.04;73.01
16431;BME280;8325;49.284;7.238;2024-01-10T18:17:40;99718.22;;;-3.09;72.95
16431;BME280;8325;49.284;7.238;2024-01-10T18:21:51;99727.19;;;-3.20;73.99
16431;BME280;8325;49.284;7.238;2024-01-10T18:26:03;99721.66;;;-3.10;73.45
16431;BME280;8325;49.284;7.238;2024-01-10T18:30:15;99735.34;;;-3.11;73.68
16431;BME280;8325;49.284;7.238;2024-01-10T18:34:27;99736.22;;;-3.12;74.01
16431;BME280;8325;49.284;7.238;2024-01-10T18:38:39;99742.13;;;-3.10;74.15
16431;BME280;8325;49.284;7.238;2024-01-10T18:42:51;99747.38;;;-3.14;74.37
16431;BME280;8325;49.284;7.238;2024-01-10T18:47:03;99748.59;;;-3.23;75.18
16431;BME280;8325;49.284;7.238;2024-01-10T18:51:16;99753.94;;;-3.29;75.67
16431;BME280;8325;49.284;7.238;2024-01-10T18:55:29;99756.38;;;-3.26;76.04
16431;BME280;8325;49.284;7.238;2024-01-10T18:59:41;99757.34;;;-3.30;76.05
16431;BME280;8325;49.284;7.238;2024-01-10T19:03:53;99770.25;;;-3.33;76.31
16431;BME280;8325;49.284;7.238;2024-01-10T19:08:05;99760.25;;;-3.39;76.68
16431;BME280;8325;49.284;7.238;2024-01-10T19:12:16;99755.97;;;-3.39;77.22
16431;BME280;8325;49.284;7.238;2024-01-10T19:16:28;99764.16;;;-3.53;78.26
16431;BME280;8325;49.284;7.238;2024-01-10T19:20:40;99765.69;;;-3.49;77.69
16431;BME280;8325;49.284;7.238;2024-01-10T19:24:52;99776.13;;;-3.55;78.09
16431;BME280;8325;49.284;7.238;2024-01-10T19:29:03;99777.06;;;-3.57;78.19
16431;BME280;8325;49.284;7.238;2024-01-10T19:33:15;99766.59;;;-3.73;79.25
16431;BME280;8325;49.284;7.238;2024-01-10T19:37:27;99769.59;;;-3.62;78.65
16431;BME280;8325;49.284;7.238;2024-01-10T19:41:41;99773.25;;;-3.69;79.33
16431;BME280;8325;49.284;7.238;2024-01-10T19:45:52;99764.72;;;-3.68;78.46
16431;BME280;8325;49.284;7.238;2024-01-10T19:50:04;99767.97;;;-3.64;79.00
16431;BME280;8325;49.284;7.238;2024-01-10T19:54:16;99771.47;;;-3.67;79.07
16431;BME280;8325;49.284;7.238;2024-01-10T19:58:28;99770.13;;;-3.77;79.53
16431;BME280;8325;49.284;7.238;2024-01-10T20:02:39;99771.91;;;-3.79;79.90
16431;BME280;8325;49.284;7.238;2024-01-10T20:06:51;99781.06;;;-3.74;79.83
16431;BME280;8325;49.284;7.238;2024-01-10T20:11:03;99782.94;;;-3.79;80.50
16431;BME280;8325;49.284;7.238;2024-01-10T20:15:14;99785.50;;;-3.79;80.48
16431;BME280;8325;49.284;7.238;2024-01-10T20:19:27;99794.22;;;-3.84;81.15
16431;BME280;8325;49.284;7.238;2024-01-10T20:23:38;99794.13;;;-3.81;80.11
16431;BME280;8325;49.284;7.238;2024-01-10T20:27:51;99792.97;;;-3.98;81.58
16431;BME280;8325;49.284;7.238;2024-01-10T20:32:03;99798.13;;;-3.99;81.55
16431;BME280;8325;49.284;7.238;2024-01-10T20:36:17;99792.44;;;-4.07;81.77
16431;BME280;8325;49.284;7.238;2024-01-10T20:40:29;99795.81;;;-4.07;81.59
16431;BME280;8325;49.284;7.238;2024-01-10T20:44:40;99796.63;;;-4.05;81.67
16431;BME280;8325;49.284;7.238;2024-01-10T20:49:00;99808.28;;;-3.98;80.44
16431;BME280;8325;49.284;7.238;2024-01-10T20:53:12;99803.06;;;-3.95;80.46
16431;BME280;8325;49.284;7.238;2024-01-10T20:57:27;99810.28;;;-4.06;81.23
16431;BME280;8325;49.284;7.238;2024-01-10T21:01:38;99806.13;;;-4.10;81.15
16431;BME280;8325;49.284;7.238;2024-01-10T21:05:50;99812.34;;;-4.17;82.19
16431;BME280;8325;49.284;7.238;2024-01-10T21:10:02;99800.56;;;-4.21;81.60
16431;BME280;8325;49.284;7.238;2024-01-10T21:14:14;99805.66;;;-4.21;81.81
16431;BME280;8325;49.284;7.238;2024-01-10T21:18:25;99802.22;;;-4.20;82.35
16431;BME280;8325;49.284;7.238;2024-01-10T21:22:38;99807.59;;;-4.28;82.49
16431;BME280;8325;49.284;7.238;2024-01-10T21:26:49;99812.00;;;-4.33;82.46
16431;BME280;8325;49.284;7.238;2024-01-10T21:31:01;99799.97;;;-4.29;82.60
16431;BME280;8325;49.284;7.238;2024-01-10T21:35:13;99801.22;;;-4.16;82.70
16431;BME280;8325;49.284;7.238;2024-01-10T21:39:27;99799.47;;;-4.14;82.95
16431;BME280;8325;49.284;7.238;2024-01-10T21:43:42;99798.69;;;-4.16;82.42
16431;BME280;8325;49.284;7.238;2024-01-10T21:47:53;99793.75;;;-4.21;82.93
16431;BME280;8325;49.284;7.238;2024-01-10T21:52:05;99789.63;;;-4.25;83.06
16431;BME280;8325;49.284;7.238;2024-01-10T21:56:17;99793.16;;;-4.29;83.19
16431;BME280;8325;49.284;7.238;2024-01-10T22:00:31;99789.78;;;-4.29;83.40
16431;BME280;8325;49.284;7.238;2024-01-10T22:04:43;99793.69;;;-4.19;83.30
16431;BME280;8325;49.284;7.238;2024-01-10T22:08:56;99795.66;;;-4.27;82.74
16431;BME280;8325;49.284;7.238;2024-01-10T22:13:07;99786.97;;;-4.22;83.33
16431;BME280;8325;49.284;7.238;2024-01-10T22:17:20;99792.94;;;-4.23;83.75
16431;BME280;8325;49.284;7.238;2024-01-10T22:21:31;99799.78;;;-4.23;83.09
16431;BME280;8325;49.284;7.238;2024-01-10T22:25:43;99790.38;;;-4.21;83.34
16431;BME280;8325;49.284;7.238;2024-01-10T22:29:55;99797.31;;;-4.26;83.19
